sensor_id;sensor_type;location;lat;lon;timestamp;P1;durP1;ratioP1;P2;durP2;ratioP2
6113;SDS011;3087;48.392;10.836;2023-04-03T00:01:00;5.60;;;4.30;;
6113;SDS011;3087;48.392;10.836;2023-04-03T00:03:25;5.00;;;4.30;;
6113;SDS011;3087;48.392;10.836;2023-04-03T00:05:51;5.40;;;4.67;;
6113;SDS011;3087;48.392;10.836;2023-04-03T00:08:17;4.67;;;3.93;;
6113;SDS011;3087;48.392;10.836;2023-04-03T00:10:43;5.13;;;4.00;;
6113;SDS011;3087;48.392;10.836;2023-04-03T00:13:09;5.13;;;3.57;;
6113;SDS011;3087;48.392;10.836;2023-04-03T00:15:35;4.33;;;3.77;;
6113;SDS011;3087;48.392;10.836;2023-04-03T00:18:02;4.10;;;3.70;;
6113;SDS011;3087;48.392;10.836;2023-04-03T00:20:28;3.73;;;3.33;;
6113;SDS011;3087;48.392;10.836;2023-04-03T00:22:54;3.87;;;3.43;;
6113;SDS011;3087;48.392;10.836;2023-04-03T00:25:20;4.47;;;3.60;;
6113;SDS011;3087;48.392;10.836;2023-04-03T00:27:45;3.87;;;3.30;;
6113;SDS011;3087;48.392;10.836;2023-04-03T00:30:13;3.77;;;3.30;;
6113;SDS011;3087;48.392;10.836;2023-04-03T00:32:40;3.83;;;3.40;;
6113;SDS011;3087;48.392;10.836;2023-04-03T00:35:06;3.47;;;3.17;;
6113;SDS011;3087;48.392;10.836;2023-04-03T00:37:32;4.33;;;3.30;;
6113;SDS011;3087;48.392;10.836;2023-04-03T00:39:57;4.53;;;3.87;;
6113;SDS011;3087;48.392;10.836;2023-04-03T00:42:23;3.50;;;3.20;;
6113;SDS011;3087;48.392;10.836;2023-04-03T00:47:17;3.73;;;3.20;;
6113;SDS011;3087;48.392;10.836;2023-04-03T00:49:43;7.47;;;3.50;;
6113;SDS011;3087;48.392;10.836;2023-04-03T00:52:11;3.80;;;3.50;;
6113;SDS011;3087;48.392;10.836;2023-04-03T00:54:40;4.57;;;3.67;;
6113;SDS011;3087;48.392;10.836;2023-04-03T00:57:07;4.87;;;3.43;;
6113;SDS011;3087;48.392;10.836;2023-04-03T00:59:34;3.43;;;2.97;;
6113;SDS011;3087;48.392;10.836;2023-04-03T01:02:03;4.03;;;3.60;;
6113;SDS011;3087;48.392;10.836;2023-04-03T01:06:57;3.73;;;3.37;;
6113;SDS011;3087;48.392;10.836;2023-04-03T01:09:26;3.57;;;3.27;;
6113;SDS011;3087;48.392;10.836;2023-04-03T01:11:53;4.17;;;3.57;;
6113;SDS011;3087;48.392;10.836;2023-04-03T01:14:19;4.00;;;3.33;;
6113;SDS011;3087;48.392;10.836;2023-04-03T01:16:54;4.10;;;3.00;;
6113;SDS011;3087;48.392;10.836;2023-04-03T01:19:20;4.23;;;3.47;;
6113;SDS011;3087;48.392;10.836;2023-04-03T01:27:18;5.80;;;2.70;;
6113;SDS011;3087;48.392;10.836;2023-04-03T01:29:43;3.33;;;3.03;;
6113;SDS011;3087;48.392;10.836;2023-04-03T01:32:10;4.00;;;3.13;;
6113;SDS011;3087;48.392;10.836;2023-04-03T01:34:36;3.90;;;3.20;;
6113;SDS011;3087;48.392;10.836;2023-04-03T01:37:01;4.10;;;3.03;;
6113;SDS011;3087;48.392;10.836;2023-04-03T01:39:27;3.50;;;2.80;;
6113;SDS011;3087;48.392;10.836;2023-04-03T01:41:52;3.40;;;3.00;;
6113;SDS011;3087;48.392;10.836;2023-04-03T01:44:18;4.43;;;4.00;;
6113;SDS011;3087;48.392;10.836;2023-04-03T01:46:44;4.13;;;3.27;;
6113;SDS011;3087;48.392;10.836;2023-04-03T01:49:09;4.10;;;3.20;;
6113;SDS011;3087;48.392;10.836;2023-04-03T01:51:35;3.30;;;3.00;;
6113;SDS011;3087;48.392;10.836;2023-04-03T01:54:01;3.90;;;3.23;;
6113;SDS011;3087;48.392;10.836;2023-04-03T01:56:26;4.00;;;3.13;;
6113;SDS011;3087;48.392;10.836;2023-04-03T01:58:52;4.80;;;4.23;;
6113;SDS011;3087;48.392;10.836;2023-04-03T02:01:17;3.50;;;2.90;;
6113;SDS011;3087;48.392;10.836;2023-04-03T02:03:43;7.13;;;3.37;;
6113;SDS011;3087;48.392;10.836;2023-04-03T02:06:09;3.67;;;3.07;;
6113;SDS011;3087;48.392;10.836;2023-04-03T02:08:35;4.53;;;3.47;;
6113;SDS011;3087;48.392;10.836;2023-04-03T02:11:00;4.43;;;3.50;;
6113;SDS011;3087;48.392;10.836;2023-04-03T02:13:26;3.50;;;3.07;;
6113;SDS011;3087;48.392;10.836;2023-04-03T02:15:51;3.67;;;3.27;;
6113;SDS011;3087;48.392;10.836;2023-04-03T02:18:17;5.00;;;2.87;;
6113;SDS011;3087;48.392;10.836;2023-04-03T02:20:43;4.10;;;3.23;;
6113;SDS011;3087;48.392;10.836;2023-04-03T02:23:08;4.40;;;2.77;;
6113;SDS011;3087;48.392;10.836;2023-04-03T02:25:34;4.30;;;3.60;;
6113;SDS011;3087;48.392;10.836;2023-04-03T02:28:00;3.30;;;3.00;;
6113;SDS011;3087;48.392;10.836;2023-04-03T02:30:26;3.60;;;3.30;;
6113;SDS011;3087;48.392;10.836;2023-04-03T02:32:51;4.43;;;3.00;;
6113;SDS011;3087;48.392;10.836;2023-04-03T02:35:18;4.23;;;3.33;;
6113;SDS011;3087;48.392;10.836;2023-04-03T02:37:43;3.10;;;2.80;;
6113;SDS011;3087;48.392;10.836;2023-04-03T02:40:09;3.90;;;3.30;;
6113;SDS011;3087;48.392;10.836;2023-04-03T02:42:36;3.67;;;3.20;;
6113;SDS011;3087;48.392;10.836;2023-04-03T02:45:02;3.50;;;3.20;;
6113;SDS011;3087;48.392;10.836;2023-04-03T02:47:28;3.50;;;3.20;;
6113;SDS011;3087;48.392;10.836;2023-04-03T02:49:53;4.87;;;3.13;;
6113;SDS011;3087;48.392;10.836;2023-04-03T02:52:19;3.23;;;2.93;;
6113;SDS011;3087;48.392;10.836;2023-04-03T02:54:45;4.93;;;3.53;;
6113;SDS011;3087;48.392;10.836;2023-04-03T02:57:11;5.00;;;3.17;;
6113;SDS011;3087;48.392;10.836;2023-04-03T02:59:36;3.93;;;3.30;;
6113;SDS011;3087;48.392;10.836;2023-04-03T03:02:05;3.80;;;3.40;;
6113;SDS011;3087;48.392;10.836;2023-04-03T03:04:33;4.27;;;3.07;;
6113;SDS011;3087;48.392;10.836;2023-04-03T03:06:59;3.40;;;3.10;;
6113;SDS011;3087;48.392;10.836;2023-04-03T03:09:25;3.93;;;3.53;;
6113;SDS011;3087;48.392;10.836;2023-04-03T03:11:51;4.13;;;3.17;;
6113;SDS011;3087;48.392;10.836;2023-04-03T03:14:16;3.53;;;3.10;;
6113;SDS011;3087;48.392;10.836;2023-04-03T03:16:42;4.40;;;3.47;;
6113;SDS011;3087;48.392;10.836;2023-04-03T03:19:08;6.13;;;3.40;;
6113;SDS011;3087;48.392;10.836;2023-04-03T03:21:33;5.63;;;3.90;;
6113;SDS011;3087;48.392;10.836;2023-04-03T03:23:59;6.13;;;3.60;;
6113;SDS011;3087;48.392;10.836;2023-04-03T03:26:24;4.93;;;3.10;;
6113;SDS011;3087;48.392;10.836;2023-04-03T03:28:50;3.90;;;3.33;;
6113;SDS011;3087;48.392;10.836;2023-04-03T03:31:16;4.40;;;3.63;;
6113;SDS011;3087;48.392;10.836;2023-04-03T03:33:41;3.70;;;3.30;;
6113;SDS011;3087;48.392;10.836;2023-04-03T03:36:07;4.50;;;3.50;;
6113;SDS011;3087;48.392;10.836;2023-04-03T03:38:32;4.27;;;3.87;;
6113;SDS011;3087;48.392;10.836;2023-04-03T03:40:58;4.27;;;3.27;;
6113;SDS011;3087;48.392;10.836;2023-04-03T03:43:24;4.50;;;3.60;;
6113;SDS011;3087;48.392;10.836;2023-04-03T03:45:50;4.10;;;3.70;;
6113;SDS011;3087;48.392;10.836;2023-04-03T03:48:17;4.07;;;3.60;;
6113;SDS011;3087;48.392;10.836;2023-04-03T03:50:43;4.03;;;3.57;;
6113;SDS011;3087;48.392;10.836;2023-04-03T03:53:09;4.70;;;3.87;;
6113;SDS011;3087;48.392;10.836;2023-04-03T03:55:34;4.13;;;3.10;;
6113;SDS011;3087;48.392;10.836;2023-04-03T03:58:00;4.37;;;3.43;;
6113;SDS011;3087;48.392;10.836;2023-04-03T04:00:26;3.80;;;3.30;;
6113;SDS011;3087;48.392;10.836;2023-04-03T04:02:52;5.10;;;4.13;;
6113;SDS011;3087;48.392;10.836;2023-04-03T04:05:18;4.70;;;4.20;;
6113;SDS011;3087;48.392;10.836;2023-04-03T04:07:43;4.50;;;3.70;;
6113;SDS011;3087;48.392;10.836;2023-04-03T04:10:09;3.50;;;3.17;;
6113;SDS011;3087;48.392;10.836;2023-04-03T04:12:35;4.83;;;4.17;;
6113;SDS011;3087;48.392;10.836;2023-04-03T04:15:01;5.57;;;3.40;;
6113;SDS011;3087;48.392;10.836;2023-04-03T04:17:27;5.13;;;3.57;;
6113;SDS011;3087;48.392;10.836;2023-04-03T04:19:52;4.00;;;3.60;;
6113;SDS011;3087;48.392;10.836;2023-04-03T04:22:18;4.77;;;3.87;;
6113;SDS011;3087;48.392;10.836;2023-04-03T04:24:44;4.57;;;3.53;;
6113;SDS011;3087;48.392;10.836;2023-04-03T04:27:09;5.47;;;3.53;;
6113;SDS011;3087;48.392;10.836;2023-04-03T04:29:35;4.60;;;3.40;;
6113;SDS011;3087;48.392;10.836;2023-04-03T04:32:02;4.97;;;3.63;;
6113;SDS011;3087;48.392;10.836;2023-04-03T04:34:28;4.83;;;3.70;;
6113;SDS011;3087;48.392;10.836;2023-04-03T04:36:54;4.70;;;3.53;;
6113;SDS011;3087;48.392;10.836;2023-04-03T04:39:20;4.23;;;3.60;;
6113;SDS011;3087;48.392;10.836;2023-04-03T04:41:46;4.43;;;4.03;;
6113;SDS011;3087;48.392;10.836;2023-04-03T04:44:11;6.00;;;3.83;;
6113;SDS011;3087;48.392;10.836;2023-04-03T04:46:37;5.47;;;3.70;;
6113;SDS011;3087;48.392;10.836;2023-04-03T04:49:02;4.70;;;4.20;;
6113;SDS011;3087;48.392;10.836;2023-04-03T04:51:28;4.03;;;3.67;;
6113;SDS011;3087;48.392;10.836;2023-04-03T04:53:53;5.13;;;4.60;;
6113;SDS011;3087;48.392;10.836;2023-04-03T04:56:19;4.00;;;3.57;;
6113;SDS011;3087;48.392;10.836;2023-04-03T04:58:45;4.30;;;3.50;;
6113;SDS011;3087;48.392;10.836;2023-04-03T05:01:11;4.80;;;3.87;;
6113;SDS011;3087;48.392;10.836;2023-04-03T05:03:37;6.20;;;3.63;;
6113;SDS011;3087;48.392;10.836;2023-04-03T05:06:02;4.93;;;3.73;;
6113;SDS011;3087;48.392;10.836;2023-04-03T05:08:28;4.50;;;3.73;;
6113;SDS011;3087;48.392;10.836;2023-04-03T05:10:54;4.87;;;4.10;;
6113;SDS011;3087;48.392;10.836;2023-04-03T05:13:20;4.73;;;3.60;;
6113;SDS011;3087;48.392;10.836;2023-04-03T05:15:46;4.70;;;4.00;;
6113;SDS011;3087;48.392;10.836;2023-04-03T05:18:12;6.80;;;3.70;;
6113;SDS011;3087;48.392;10.836;2023-04-03T05:20:38;6.73;;;5.20;;
6113;SDS011;3087;48.392;10.836;2023-04-03T05:23:04;4.70;;;3.77;;
6113;SDS011;3087;48.392;10.836;2023-04-03T05:25:29;5.13;;;4.03;;
6113;SDS011;3087;48.392;10.836;2023-04-03T05:27:55;5.03;;;4.00;;
6113;SDS011;3087;48.392;10.836;2023-04-03T05:30:20;4.90;;;4.03;;
6113;SDS011;3087;48.392;10.836;2023-04-03T05:32:46;6.07;;;4.57;;
6113;SDS011;3087;48.392;10.836;2023-04-03T05:35:12;6.73;;;4.70;;
6113;SDS011;3087;48.392;10.836;2023-04-03T05:37:38;4.73;;;4.00;;
6113;SDS011;3087;48.392;10.836;2023-04-03T05:40:04;4.30;;;3.90;;
6113;SDS011;3087;48.392;10.836;2023-04-03T05:42:30;9.80;;;6.30;;
6113;SDS011;3087;48.392;10.836;2023-04-03T05:44:56;5.50;;;4.47;;
6113;SDS011;3087;48.392;10.836;2023-04-03T05:47:21;8.20;;;5.33;;
6113;SDS011;3087;48.392;10.836;2023-04-03T05:49:48;5.67;;;4.53;;
6113;SDS011;3087;48.392;10.836;2023-04-03T05:52:23;5.60;;;4.60;;
6113;SDS011;3087;48.392;10.836;2023-04-03T05:54:53;5.70;;;4.43;;
6113;SDS011;3087;48.392;10.836;2023-04-03T05:57:20;3.80;;;3.37;;
6113;SDS011;3087;48.392;10.836;2023-04-03T05:59:45;4.70;;;3.67;;
6113;SDS011;3087;48.392;10.836;2023-04-03T06:02:12;4.67;;;3.90;;
6113;SDS011;3087;48.392;10.836;2023-04-03T06:04:40;4.13;;;3.73;;
6113;SDS011;3087;48.392;10.836;2023-04-03T06:07:06;5.10;;;4.50;;
6113;SDS011;3087;48.392;10.836;2023-04-03T06:09:35;4.10;;;3.73;;
6113;SDS011;3087;48.392;10.836;2023-04-03T06:12:01;4.60;;;3.60;;
6113;SDS011;3087;48.392;10.836;2023-04-03T06:14:26;4.20;;;3.80;;
6113;SDS011;3087;48.392;10.836;2023-04-03T06:16:52;7.13;;;4.60;;
6113;SDS011;3087;48.392;10.836;2023-04-03T06:19:19;4.60;;;4.10;;
6113;SDS011;3087;48.392;10.836;2023-04-03T06:21:45;5.43;;;4.33;;
6113;SDS011;3087;48.392;10.836;2023-04-03T06:24:12;6.10;;;4.03;;
6113;SDS011;3087;48.392;10.836;2023-04-03T06:26:40;4.57;;;4.00;;
6113;SDS011;3087;48.392;10.836;2023-04-03T06:29:06;5.37;;;4.83;;
6113;SDS011;3087;48.392;10.836;2023-04-03T06:31:32;5.73;;;4.10;;
6113;SDS011;3087;48.392;10.836;2023-04-03T06:33:57;5.90;;;3.80;;
6113;SDS011;3087;48.392;10.836;2023-04-03T06:36:23;5.27;;;4.13;;
6113;SDS011;3087;48.392;10.836;2023-04-03T06:38:49;5.43;;;3.93;;
6113;SDS011;3087;48.392;10.836;2023-04-03T06:41:15;5.30;;;4.10;;
6113;SDS011;3087;48.392;10.836;2023-04-03T06:43:42;5.50;;;3.93;;
6113;SDS011;3087;48.392;10.836;2023-04-03T06:46:19;4.83;;;4.33;;
6113;SDS011;3087;48.392;10.836;2023-04-03T06:48:46;5.93;;;4.33;;
6113;SDS011;3087;48.392;10.836;2023-04-03T06:53:49;5.37;;;4.37;;
6113;SDS011;3087;48.392;10.836;2023-04-03T06:56:15;6.33;;;5.13;;
6113;SDS011;3087;48.392;10.836;2023-04-03T06:58:41;6.37;;;4.33;;
6113;SDS011;3087;48.392;10.836;2023-04-03T07:01:08;6.90;;;4.00;;
6113;SDS011;3087;48.392;10.836;2023-04-03T07:03:35;8.20;;;4.97;;
6113;SDS011;3087;48.392;10.836;2023-04-03T07:06:02;6.43;;;4.37;;
6113;SDS011;3087;48.392;10.836;2023-04-03T07:08:28;5.27;;;4.30;;
6113;SDS011;3087;48.392;10.836;2023-04-03T07:10:54;5.27;;;4.33;;
6113;SDS011;3087;48.392;10.836;2023-04-03T07:13:20;5.03;;;3.90;;
6113;SDS011;3087;48.392;10.836;2023-04-03T07:15:46;6.27;;;4.10;;
6113;SDS011;3087;48.392;10.836;2023-04-03T07:18:11;5.43;;;4.07;;
6113;SDS011;3087;48.392;10.836;2023-04-03T07:20:38;4.60;;;4.10;;
6113;SDS011;3087;48.392;10.836;2023-04-03T07:23:03;6.30;;;4.77;;
6113;SDS011;3087;48.392;10.836;2023-04-03T07:25:29;6.57;;;4.53;;
6113;SDS011;3087;48.392;10.836;2023-04-03T07:27:56;6.07;;;4.77;;
6113;SDS011;3087;48.392;10.836;2023-04-03T07:30:22;4.87;;;4.00;;
6113;SDS011;3087;48.392;10.836;2023-04-03T07:32:48;5.37;;;4.27;;
6113;SDS011;3087;48.392;10.836;2023-04-03T07:35:14;4.90;;;3.90;;
6113;SDS011;3087;48.392;10.836;2023-04-03T07:37:41;4.70;;;4.10;;
6113;SDS011;3087;48.392;10.836;2023-04-03T07:40:07;7.77;;;4.40;;
6113;SDS011;3087;48.392;10.836;2023-04-03T07:42:33;6.80;;;4.20;;
6113;SDS011;3087;48.392;10.836;2023-04-03T07:45:00;8.93;;;4.77;;
6113;SDS011;3087;48.392;10.836;2023-04-03T07:47:26;6.63;;;4.43;;
6113;SDS011;3087;48.392;10.836;2023-04-03T07:49:52;8.23;;;4.30;;
6113;SDS011;3087;48.392;10.836;2023-04-03T07:52:18;7.00;;;4.67;;
6113;SDS011;3087;48.392;10.836;2023-04-03T07:54:43;6.60;;;4.43;;
6113;SDS011;3087;48.392;10.836;2023-04-03T07:57:09;5.73;;;4.17;;
6113;SDS011;3087;48.392;10.836;2023-04-03T07:59:34;6.33;;;4.07;;
6113;SDS011;3087;48.392;10.836;2023-04-03T08:02:00;5.90;;;4.00;;
6113;SDS011;3087;48.392;10.836;2023-04-03T08:04:26;5.37;;;4.10;;
6113;SDS011;3087;48.392;10.836;2023-04-03T08:06:52;4.87;;;3.83;;
6113;SDS011;3087;48.392;10.836;2023-04-03T08:09:18;7.57;;;4.50;;
6113;SDS011;3087;48.392;10.836;2023-04-03T08:11:44;4.57;;;4.00;;
6113;SDS011;3087;48.392;10.836;2023-04-03T08:14:10;6.23;;;4.17;;
6113;SDS011;3087;48.392;10.836;2023-04-03T08:16:41;4.50;;;3.80;;
6113;SDS011;3087;48.392;10.836;2023-04-03T08:19:07;4.93;;;4.43;;
6113;SDS011;3087;48.392;10.836;2023-04-03T08:21:33;9.87;;;4.43;;
6113;SDS011;3087;48.392;10.836;2023-04-03T08:23:59;5.57;;;4.60;;
6113;SDS011;3087;48.392;10.836;2023-04-03T08:26:25;6.50;;;3.93;;
6113;SDS011;3087;48.392;10.836;2023-04-03T08:28:51;5.63;;;4.00;;
6113;SDS011;3087;48.392;10.836;2023-04-03T08:31:18;5.20;;;4.10;;
6113;SDS011;3087;48.392;10.836;2023-04-03T08:33:44;7.33;;;3.90;;
6113;SDS011;3087;48.392;10.836;2023-04-03T08:36:18;6.73;;;4.00;;
6113;SDS011;3087;48.392;10.836;2023-04-03T08:38:49;5.97;;;3.70;;
6113;SDS011;3087;48.392;10.836;2023-04-03T08:49:40;11.90;;;4.40;;
6113;SDS011;3087;48.392;10.836;2023-04-03T08:57:46;5.93;;;3.80;;
6113;SDS011;3087;48.392;10.836;2023-04-03T09:00:18;4.70;;;3.70;;
6113;SDS011;3087;48.392;10.836;2023-04-03T09:02:48;6.63;;;4.20;;
6113;SDS011;3087;48.392;10.836;2023-04-03T09:05:20;7.87;;;4.83;;
6113;SDS011;3087;48.392;10.836;2023-04-03T09:07:59;5.97;;;3.80;;
6113;SDS011;3087;48.392;10.836;2023-04-03T09:10:30;7.53;;;4.00;;
6113;SDS011;3087;48.392;10.836;2023-04-03T09:13:01;6.53;;;4.33;;
6113;SDS011;3087;48.392;10.836;2023-04-03T09:15:43;5.80;;;3.83;;
6113;SDS011;3087;48.392;10.836;2023-04-03T09:18:14;5.60;;;4.33;;
6113;SDS011;3087;48.392;10.836;2023-04-03T09:25:56;7.67;;;3.80;;
6113;SDS011;3087;48.392;10.836;2023-04-03T09:28:30;4.77;;;4.20;;
6113;SDS011;3087;48.392;10.836;2023-04-03T09:31:00;6.07;;;4.10;;
6113;SDS011;3087;48.392;10.836;2023-04-03T09:33:26;4.93;;;3.53;;
6113;SDS011;3087;48.392;10.836;2023-04-03T09:35:54;5.67;;;4.03;;
6113;SDS011;3087;48.392;10.836;2023-04-03T09:38:20;5.13;;;3.50;;
6113;SDS011;3087;48.392;10.836;2023-04-03T09:41:06;4.50;;;3.50;;
6113;SDS011;3087;48.392;10.836;2023-04-03T09:43:40;7.60;;;5.13;;
6113;SDS011;3087;48.392;10.836;2023-04-03T09:48:57;9.27;;;6.30;;
6113;SDS011;3087;48.392;10.836;2023-04-03T09:51:28;6.30;;;4.90;;
6113;SDS011;3087;48.392;10.836;2023-04-03T09:53:54;11.73;;;8.10;;
6113;SDS011;3087;48.392;10.836;2023-04-03T09:56:27;8.10;;;6.23;;
6113;SDS011;3087;48.392;10.836;2023-04-03T10:01:29;6.73;;;4.00;;
6113;SDS011;3087;48.392;10.836;2023-04-03T10:04:07;6.90;;;4.90;;
6113;SDS011;3087;48.392;10.836;2023-04-03T10:06:34;11.03;;;6.90;;
6113;SDS011;3087;48.392;10.836;2023-04-03T10:09:06;16.67;;;8.83;;
6113;SDS011;3087;48.392;10.836;2023-04-03T10:11:50;16.40;;;9.10;;
6113;SDS011;3087;48.392;10.836;2023-04-03T10:17:18;7.60;;;4.63;;
6113;SDS011;3087;48.392;10.836;2023-04-03T10:23:00;11.63;;;7.90;;
6113;SDS011;3087;48.392;10.836;2023-04-03T10:39:10;16.77;;;9.00;;
6113;SDS011;3087;48.392;10.836;2023-04-03T10:42:04;6.30;;;4.13;;
6113;SDS011;3087;48.392;10.836;2023-04-03T10:47:57;5.20;;;4.03;;
6113;SDS011;3087;48.392;10.836;2023-04-03T10:50:42;4.93;;;3.37;;
6113;SDS011;3087;48.392;10.836;2023-04-03T10:53:44;7.53;;;3.97;;
6113;SDS011;3087;48.392;10.836;2023-04-03T10:56:37;7.70;;;3.90;;
6113;SDS011;3087;48.392;10.836;2023-04-03T11:01:59;5.40;;;3.47;;
6113;SDS011;3087;48.392;10.836;2023-04-03T11:04:30;5.40;;;4.00;;
6113;SDS011;3087;48.392;10.836;2023-04-03T11:09:35;6.20;;;4.07;;
6113;SDS011;3087;48.392;10.836;2023-04-03T11:12:52;6.60;;;3.70;;
6113;SDS011;3087;48.392;10.836;2023-04-03T11:15:11;5.50;;;4.00;;
6113;SDS011;3087;48.392;10.836;2023-04-03T11:17:42;5.57;;;3.67;;
6113;SDS011;3087;48.392;10.836;2023-04-03T11:20:18;4.00;;;3.60;;
6113;SDS011;3087;48.392;10.836;2023-04-03T11:23:16;5.40;;;3.70;;
6113;SDS011;3087;48.392;10.836;2023-04-03T11:25:44;6.80;;;4.10;;
6113;SDS011;3087;48.392;10.836;2023-04-03T11:28:14;5.57;;;4.00;;
6113;SDS011;3087;48.392;10.836;2023-04-03T11:36:41;5.27;;;3.23;;
6113;SDS011;3087;48.392;10.836;2023-04-03T11:39:45;4.60;;;3.80;;
6113;SDS011;3087;48.392;10.836;2023-04-03T12:06:41;3.90;;;3.17;;
6113;SDS011;3087;48.392;10.836;2023-04-03T12:16:07;8.13;;;3.80;;
6113;SDS011;3087;48.392;10.836;2023-04-03T12:22:04;5.10;;;3.33;;
6113;SDS011;3087;48.392;10.836;2023-04-03T12:40:21;4.77;;;3.43;;
6113;SDS011;3087;48.392;10.836;2023-04-03T12:45:40;3.47;;;2.63;;
6113;SDS011;3087;48.392;10.836;2023-04-03T12:48:16;6.90;;;4.47;;
6113;SDS011;3087;48.392;10.836;2023-04-03T12:50:47;6.37;;;3.30;;
6113;SDS011;3087;48.392;10.836;2023-04-03T12:53:27;5.15;;;2.92;;
6113;SDS011;3087;48.392;10.836;2023-04-03T12:56:18;5.93;;;2.90;;
6113;SDS011;3087;48.392;10.836;2023-04-03T12:58:46;3.67;;;2.83;;
6113;SDS011;3087;48.392;10.836;2023-04-03T13:01:13;4.63;;;3.05;;
6113;SDS011;3087;48.392;10.836;2023-04-03T13:03:44;5.20;;;2.83;;
6113;SDS011;3087;48.392;10.836;2023-04-03T13:06:19;3.63;;;3.17;;
6113;SDS011;3087;48.392;10.836;2023-04-03T13:08:51;5.97;;;3.10;;
6113;SDS011;3087;48.392;10.836;2023-04-03T13:11:22;5.38;;;3.25;;
6113;SDS011;3087;48.392;10.836;2023-04-03T13:13:53;3.30;;;2.63;;
6113;SDS011;3087;48.392;10.836;2023-04-03T13:16:28;5.10;;;3.47;;
6113;SDS011;3087;48.392;10.836;2023-04-03T13:18:54;6.47;;;3.05;;
6113;SDS011;3087;48.392;10.836;2023-04-03T13:21:24;3.70;;;2.60;;
6113;SDS011;3087;48.392;10.836;2023-04-03T13:23:56;4.10;;;2.80;;
6113;SDS011;3087;48.392;10.836;2023-04-03T13:26:26;3.57;;;2.63;;
6113;SDS011;3087;48.392;10.836;2023-04-03T13:28:55;4.83;;;3.10;;
6113;SDS011;3087;48.392;10.836;2023-04-03T13:31:45;4.30;;;2.80;;
6113;SDS011;3087;48.392;10.836;2023-04-03T13:34:12;4.80;;;2.87;;
6113;SDS011;3087;48.392;10.836;2023-04-03T13:36:55;6.57;;;2.77;;
6113;SDS011;3087;48.392;10.836;2023-04-03T13:39:26;4.83;;;2.60;;
6113;SDS011;3087;48.392;10.836;2023-04-03T13:41:55;4.47;;;2.67;;
6113;SDS011;3087;48.392;10.836;2023-04-03T13:46:52;4.30;;;3.00;;
6113;SDS011;3087;48.392;10.836;2023-04-03T13:51:51;3.87;;;2.87;;
6113;SDS011;3087;48.392;10.836;2023-04-03T13:54:19;3.47;;;2.40;;
6113;SDS011;3087;48.392;10.836;2023-04-03T13:56:53;3.63;;;2.57;;
6113;SDS011;3087;48.392;10.836;2023-04-03T13:59:23;3.53;;;2.87;;
6113;SDS011;3087;48.392;10.836;2023-04-03T14:02:09;3.13;;;2.63;;
6113;SDS011;3087;48.392;10.836;2023-04-03T14:07:11;5.13;;;2.77;;
6113;SDS011;3087;48.392;10.836;2023-04-03T14:09:38;5.67;;;3.13;;
6113;SDS011;3087;48.392;10.836;2023-04-03T14:12:06;5.90;;;3.90;;
6113;SDS011;3087;48.392;10.836;2023-04-03T14:14:38;3.03;;;2.47;;
6113;SDS011;3087;48.392;10.836;2023-04-03T14:17:12;4.05;;;3.00;;
6113;SDS011;3087;48.392;10.836;2023-04-03T14:19:42;4.70;;;2.60;;
6113;SDS011;3087;48.392;10.836;2023-04-03T14:22:19;5.18;;;2.97;;
6113;SDS011;3087;48.392;10.836;2023-04-03T14:24:48;4.65;;;2.53;;
6113;SDS011;3087;48.392;10.836;2023-04-03T14:27:17;3.28;;;2.38;;
6113;SDS011;3087;48.392;10.836;2023-04-03T14:30:06;4.03;;;3.20;;
6113;SDS011;3087;48.392;10.836;2023-04-03T14:32:34;3.72;;;2.70;;
6113;SDS011;3087;48.392;10.836;2023-04-03T14:35:00;6.93;;;3.08;;
6113;SDS011;3087;48.392;10.836;2023-04-03T14:37:26;5.43;;;3.08;;
6113;SDS011;3087;48.392;10.836;2023-04-03T14:39:54;5.20;;;2.72;;
6113;SDS011;3087;48.392;10.836;2023-04-03T14:42:31;5.18;;;2.30;;
6113;SDS011;3087;48.392;10.836;2023-04-03T14:44:59;5.68;;;3.85;;
6113;SDS011;3087;48.392;10.836;2023-04-03T14:47:30;5.03;;;2.45;;
6113;SDS011;3087;48.392;10.836;2023-04-03T14:49:57;3.75;;;2.33;;
6113;SDS011;3087;48.392;10.836;2023-04-03T14:52:34;6.55;;;2.80;;
6113;SDS011;3087;48.392;10.836;2023-04-03T14:55:00;3.00;;;2.70;;
6113;SDS011;3087;48.392;10.836;2023-04-03T14:57:28;4.88;;;3.28;;
6113;SDS011;3087;48.392;10.836;2023-04-03T14:59:55;5.07;;;3.08;;
6113;SDS011;3087;48.392;10.836;2023-04-03T15:02:28;3.03;;;2.70;;
6113;SDS011;3087;48.392;10.836;2023-04-03T15:04:59;3.07;;;2.27;;
6113;SDS011;3087;48.392;10.836;2023-04-03T15:07:29;3.73;;;2.97;;
6113;SDS011;3087;48.392;10.836;2023-04-03T15:09:55;3.73;;;2.47;;
6113;SDS011;3087;48.392;10.836;2023-04-03T15:12:21;4.77;;;3.23;;
6113;SDS011;3087;48.392;10.836;2023-04-03T15:14:48;5.17;;;2.90;;
6113;SDS011;3087;48.392;10.836;2023-04-03T15:17:17;3.77;;;2.50;;
6113;SDS011;3087;48.392;10.836;2023-04-03T15:19:47;3.83;;;2.40;;
6113;SDS011;3087;48.392;10.836;2023-04-03T15:22:13;3.37;;;2.40;;
6113;SDS011;3087;48.392;10.836;2023-04-03T15:24:40;3.33;;;2.63;;
6113;SDS011;3087;48.392;10.836;2023-04-03T15:27:07;4.30;;;2.40;;
6113;SDS011;3087;48.392;10.836;2023-04-03T15:29:33;3.30;;;2.57;;
6113;SDS011;3087;48.392;10.836;2023-04-03T15:31:59;4.67;;;2.70;;
6113;SDS011;3087;48.392;10.836;2023-04-03T15:34:24;3.70;;;2.87;;
6113;SDS011;3087;48.392;10.836;2023-04-03T15:36:50;4.97;;;3.00;;
6113;SDS011;3087;48.392;10.836;2023-04-03T15:39:18;3.27;;;2.13;;
6113;SDS011;3087;48.392;10.836;2023-04-03T15:41:45;2.87;;;2.53;;
6113;SDS011;3087;48.392;10.836;2023-04-03T15:44:11;4.70;;;2.60;;
6113;SDS011;3087;48.392;10.836;2023-04-03T15:46:37;4.20;;;2.77;;
6113;SDS011;3087;48.392;10.836;2023-04-03T15:49:04;4.37;;;3.03;;
6113;SDS011;3087;48.392;10.836;2023-04-03T15:51:30;3.20;;;2.13;;
6113;SDS011;3087;48.392;10.836;2023-04-03T15:53:56;3.57;;;2.60;;
6113;SDS011;3087;48.392;10.836;2023-04-03T15:56:21;16.70;;;7.00;;
6113;SDS011;3087;48.392;10.836;2023-04-03T15:58:47;4.65;;;3.85;;
6113;SDS011;3087;48.392;10.836;2023-04-03T16:01:13;3.80;;;2.60;;
6113;SDS011;3087;48.392;10.836;2023-04-03T16:03:39;3.25;;;2.35;;
6113;SDS011;3087;48.392;10.836;2023-04-03T16:06:09;9.83;;;4.30;;
6113;SDS011;3087;48.392;10.836;2023-04-03T16:08:36;8.93;;;6.10;;
6113;SDS011;3087;48.392;10.836;2023-04-03T16:11:02;2.80;;;2.30;;
6113;SDS011;3087;48.392;10.836;2023-04-03T16:13:28;4.10;;;2.47;;
6113;SDS011;3087;48.392;10.836;2023-04-03T16:15:54;4.10;;;2.40;;
6113;SDS011;3087;48.392;10.836;2023-04-03T16:18:19;3.70;;;2.70;;
6113;SDS011;3087;48.392;10.836;2023-04-03T16:20:45;3.53;;;2.97;;
6113;SDS011;3087;48.392;10.836;2023-04-03T16:23:11;4.73;;;3.20;;
6113;SDS011;3087;48.392;10.836;2023-04-03T16:25:37;3.23;;;2.63;;
6113;SDS011;3087;48.392;10.836;2023-04-03T16:28:03;3.27;;;2.40;;
6113;SDS011;3087;48.392;10.836;2023-04-03T16:30:29;3.57;;;2.40;;
6113;SDS011;3087;48.392;10.836;2023-04-03T16:32:54;3.10;;;2.10;;
6113;SDS011;3087;48.392;10.836;2023-04-03T16:35:21;2.80;;;2.30;;
6113;SDS011;3087;48.392;10.836;2023-04-03T16:37:47;4.93;;;3.00;;
6113;SDS011;3087;48.392;10.836;2023-04-03T16:40:13;4.03;;;3.00;;
6113;SDS011;3087;48.392;10.836;2023-04-03T16:42:39;6.10;;;2.70;;
6113;SDS011;3087;48.392;10.836;2023-04-03T16:45:05;4.20;;;2.40;;
6113;SDS011;3087;48.392;10.836;2023-04-03T16:47:31;2.73;;;2.00;;
6113;SDS011;3087;48.392;10.836;2023-04-03T16:49:57;3.97;;;2.63;;
6113;SDS011;3087;48.392;10.836;2023-04-03T16:52:23;4.50;;;2.57;;
6113;SDS011;3087;48.392;10.836;2023-04-03T16:54:48;3.00;;;2.20;;
6113;SDS011;3087;48.392;10.836;2023-04-03T16:57:14;3.87;;;2.87;;
6113;SDS011;3087;48.392;10.836;2023-04-03T16:59:40;4.47;;;2.87;;
6113;SDS011;3087;48.392;10.836;2023-04-03T17:02:06;2.37;;;2.17;;
6113;SDS011;3087;48.392;10.836;2023-04-03T17:04:31;3.50;;;2.70;;
6113;SDS011;3087;48.392;10.836;2023-04-03T17:06:57;4.10;;;2.80;;
6113;SDS011;3087;48.392;10.836;2023-04-03T17:09:24;4.80;;;2.53;;
6113;SDS011;3087;48.392;10.836;2023-04-03T17:11:50;5.27;;;3.13;;
6113;SDS011;3087;48.392;10.836;2023-04-03T17:14:16;3.93;;;2.70;;
6113;SDS011;3087;48.392;10.836;2023-04-03T17:16:41;4.23;;;3.33;;
6113;SDS011;3087;48.392;10.836;2023-04-03T17:19:07;3.50;;;2.83;;